createdAt,value
2023-02-03T00:01:51.333Z,24.52
2023-02-03T00:04:18.282Z,24.83
2023-02-03T00:06:45.611Z,22.95
2023-02-03T00:09:12.494Z,17.23
2023-02-03T00:11:39.852Z,18.75
2023-02-03T00:14:08.100Z,19.17
2023-02-03T00:16:35.558Z,16.25
2023-02-03T00:19:02.862Z,30.05
2023-02-03T00:21:29.725Z,28.48
2023-02-03T00:23:56.581Z,33.88
2023-02-03T00:26:26.003Z,25.25
2023-02-03T00:28:52.929Z,30.42
2023-02-03T00:31:24.517Z,25.75
2023-02-03T00:33:58.303Z,30.90
2023-02-03T00:36:26.418Z,29.90
2023-02-03T00:38:53.894Z,23.20
2023-02-03T00:41:21.670Z,22.92
2023-02-03T00:43:49.450Z,28.80
2023-02-03T00:46:16.792Z,30.80
2023-02-03T00:48:44.052Z,28.55
2023-02-03T00:51:10.908Z,27.38
2023-02-03T00:53:37.950Z,31.40
2023-02-03T00:56:12.452Z,33.38
2023-02-03T00:58:42.439Z,32.13
2023-02-03T01:01:09.875Z,33.80
2023-02-03T01:03:37.088Z,32.75
2023-02-03T01:06:18.835Z,30.50
2023-02-03T01:08:47.740Z,32.20
2023-02-03T01:11:19.817Z,27.77
2023-02-03T01:13:49.084Z,28.42
2023-02-03T01:16:18.698Z,29.40
2023-02-03T01:18:46.674Z,28.95
2023-02-03T01:21:25.229Z,28.60
2023-02-03T01:23:53.458Z,24.88
2023-02-03T01:26:21.677Z,22.60
2023-02-03T01:28:53.107Z,29.73
2023-02-03T01:31:24.060Z,24.52
2023-02-03T01:33:52.596Z,20.15
2023-02-03T01:36:19.557Z,25.60
2023-02-03T01:38:46.556Z,23.20
2023-02-03T01:41:19.588Z,27.60
2023-02-03T01:43:49.906Z,24.35
2023-02-03T01:46:31.781Z,26.60
2023-02-03T01:51:29.915Z,29.10
2023-02-03T01:53:57.537Z,26.95
2023-02-03T01:56:25.568Z,26.27
2023-02-03T01:58:52.530Z,23.63
2023-02-03T02:01:19.912Z,21.58
2023-02-03T02:03:52.346Z,22.42
2023-02-03T02:06:19.313Z,20.20
2023-02-03T02:08:51.560Z,26.40
2023-02-03T02:11:21.481Z,24.15
2023-02-03T02:13:50.099Z,29.65
2023-02-03T02:16:18.809Z,26.45
2023-02-03T02:18:48.745Z,22.17
2023-02-03T02:21:43.174Z,21.50
2023-02-03T02:24:28.360Z,22.00
2023-02-03T02:26:55.308Z,20.77
2023-02-03T02:29:48.150Z,19.95
2023-02-03T02:32:18.254Z,17.75
2023-02-03T02:34:56.251Z,23.10
2023-02-03T02:37:31.136Z,18.10
2023-02-03T02:40:19.715Z,18.55
2023-02-03T02:43:07.044Z,16.60
2023-02-03T02:45:45.072Z,16.58
2023-02-03T02:48:36.248Z,18.02
2023-02-03T02:51:05.534Z,13.40
2023-02-03T02:53:38.839Z,16.67
2023-02-03T02:56:07.874Z,14.68
2023-02-03T02:58:36.451Z,18.83
2023-02-03T03:01:04.030Z,18.05
2023-02-03T03:03:30.891Z,13.23
2023-02-03T03:06:08.751Z,15.20
2023-02-03T03:09:00.955Z,14.63
2023-02-03T03:11:31.375Z,13.23
2023-02-03T03:13:59.746Z,14.32
2023-02-03T03:16:28.174Z,11.75
2023-02-03T03:19:01.982Z,11.35
2023-02-03T03:21:35.025Z,12.27
2023-02-03T03:24:10.310Z,9.57
2023-02-03T03:26:43.949Z,10.32
2023-02-03T03:29:24.501Z,8.85
2023-02-03T03:31:51.758Z,7.88
2023-02-03T03:34:18.969Z,10.15
2023-02-03T03:36:56.028Z,7.07
2023-02-03T03:39:22.961Z,10.75
2023-02-03T03:41:57.598Z,11.90
2023-02-03T03:44:29.663Z,7.68
2023-02-03T03:47:04.847Z,10.60
2023-02-03T03:49:34.107Z,10.30
2023-02-03T03:52:08.517Z,7.18
2023-02-03T03:54:37.809Z,8.80
2023-02-03T03:57:15.643Z,7.18
2023-02-03T03:59:46.168Z,11.40
2023-02-03T04:02:13.570Z,11.50
2023-02-03T04:04:41.065Z,10.00
2023-02-03T04:07:08.095Z,9.63
2023-02-03T04:09:37.058Z,14.00
2023-02-03T04:12:06.441Z,9.45
2023-02-03T04:14:36.021Z,10.50
2023-02-03T04:17:03.080Z,15.50
2023-02-03T04:19:30.194Z,11.38
2023-02-03T04:21:57.358Z,10.32
2023-02-03T04:24:24.672Z,10.68
2023-02-03T04:26:51.540Z,7.95
2023-02-03T04:29:18.506Z,11.23
2023-02-03T04:31:45.477Z,12.23
2023-02-03T04:34:12.493Z,10.15
2023-02-03T04:36:39.415Z,8.85
2023-02-03T04:39:06.429Z,10.98
2023-02-03T04:41:33.352Z,8.20
2023-02-03T04:44:00.230Z,7.50
2023-02-03T04:46:27.217Z,8.50
2023-02-03T04:48:54.091Z,7.50
2023-02-03T04:51:21.077Z,12.48
2023-02-03T04:53:47.928Z,11.93
2023-02-03T04:56:16.196Z,12.07
2023-02-03T04:58:43.242Z,15.18
2023-02-03T05:01:10.527Z,7.63
2023-02-03T05:03:37.970Z,10.75
2023-02-03T05:06:05.759Z,7.45
2023-02-03T05:08:32.937Z,9.60
2023-02-03T05:11:01.990Z,8.40
2023-02-03T05:13:29.726Z,9.25
2023-02-03T05:15:56.749Z,11.63
2023-02-03T05:18:24.089Z,7.22
2023-02-03T05:20:51.125Z,10.80
2023-02-03T05:23:18.138Z,9.75
2023-02-03T05:25:45.579Z,8.85
2023-02-03T05:28:12.786Z,11.93
2023-02-03T05:30:39.865Z,7.68
2023-02-03T05:33:07.013Z,8.45
2023-02-03T05:35:34.394Z,11.07
2023-02-03T05:38:01.425Z,9.27
2023-02-03T05:40:46.681Z,8.63
2023-02-03T05:43:13.702Z,12.38
2023-02-03T05:45:40.833Z,9.27
2023-02-03T05:48:07.814Z,10.80
2023-02-03T05:50:37.481Z,14.88
2023-02-03T05:53:09.120Z,16.70
2023-02-03T05:55:36.701Z,11.70
2023-02-03T05:58:04.759Z,9.27
2023-02-03T06:00:31.764Z,7.60
2023-02-03T06:03:00.958Z,12.55
2023-02-03T06:05:28.741Z,11.20
2023-02-03T06:07:55.716Z,11.20
2023-02-03T06:10:22.922Z,10.27
2023-02-03T06:12:50.297Z,12.85
2023-02-03T06:15:18.003Z,11.73
2023-02-03T06:17:46.421Z,12.90
2023-02-03T06:20:15.675Z,15.68
2023-02-03T06:22:43.193Z,11.50
2023-02-03T06:25:13.014Z,12.40
2023-02-03T06:27:41.035Z,13.68
2023-02-03T06:30:08.709Z,14.23
2023-02-03T06:32:35.629Z,15.02
2023-02-03T06:35:02.549Z,14.43
2023-02-03T06:37:29.550Z,13.25
2023-02-03T06:39:56.470Z,15.80
2023-02-03T06:42:23.476Z,13.98
2023-02-03T06:44:50.427Z,13.88
2023-02-03T06:47:17.371Z,10.13
2023-02-03T06:49:44.250Z,13.05
2023-02-03T06:52:11.226Z,19.65
2023-02-03T06:54:38.204Z,20.35
2023-02-03T06:57:05.214Z,22.92
2023-02-03T06:59:32.588Z,16.40
2023-02-03T07:01:59.533Z,23.02
2023-02-03T07:04:30.203Z,15.02
2023-02-03T07:06:57.811Z,17.65
2023-02-03T07:09:24.850Z,16.70
2023-02-03T07:11:51.806Z,13.30
2023-02-03T07:14:18.950Z,17.10
2023-02-03T07:16:45.894Z,24.15
2023-02-03T07:19:13.088Z,28.10
2023-02-03T07:21:40.047Z,18.40
2023-02-03T07:24:07.085Z,18.63
2023-02-03T07:26:34.147Z,15.05
2023-02-03T07:29:01.102Z,20.23
2023-02-03T07:31:28.379Z,11.85
2023-02-03T07:33:55.507Z,12.13
2023-02-03T07:36:22.476Z,11.68
2023-02-03T07:38:49.546Z,12.75
2023-02-03T07:41:18.141Z,9.48
2023-02-03T07:43:45.333Z,11.05
2023-02-03T07:46:12.768Z,8.50
2023-02-03T07:48:39.777Z,7.85
2023-02-03T07:51:06.790Z,8.77
2023-02-03T07:53:33.963Z,8.75
2023-02-03T07:56:02.789Z,6.85
2023-02-03T07:58:30.411Z,9.15
2023-02-03T08:00:58.122Z,10.68
2023-02-03T08:03:25.227Z,14.15
2023-02-03T08:05:53.630Z,8.57
2023-02-03T08:08:20.786Z,8.15
2023-02-03T08:10:47.805Z,9.13
2023-02-03T08:13:14.904Z,11.15
2023-02-03T08:15:41.908Z,12.32
2023-02-03T08:18:09.892Z,11.23
2023-02-03T08:20:36.889Z,9.30
2023-02-03T08:23:04.009Z,9.70
2023-02-03T08:25:31.164Z,13.23
2023-02-03T08:27:58.267Z,14.60
2023-02-03T08:30:26.200Z,15.25
2023-02-03T08:35:38.389Z,12.38
2023-02-03T08:38:05.426Z,9.32
2023-02-03T08:40:32.406Z,12.13
2023-02-03T08:42:59.436Z,10.18
2023-02-03T08:45:26.569Z,10.50
2023-02-03T08:47:53.625Z,10.38
2023-02-03T08:50:20.786Z,13.48
2023-02-03T08:52:47.788Z,9.60
2023-02-03T08:55:14.966Z,9.60
2023-02-03T08:57:42.295Z,8.27
2023-02-03T09:00:10.786Z,7.72
2023-02-03T09:02:37.903Z,8.63
2023-02-03T09:05:05.439Z,8.88
2023-02-03T09:07:32.429Z,9.05
2023-02-03T09:09:59.650Z,12.63
2023-02-03T09:12:26.751Z,5.95
2023-02-03T09:14:53.964Z,12.10
2023-02-03T09:17:21.041Z,9.40
2023-02-03T09:19:48.032Z,9.50
2023-02-03T09:22:15.075Z,9.57
2023-02-03T09:24:42.296Z,12.13
2023-02-03T09:27:09.373Z,11.98
2023-02-03T09:29:36.504Z,10.43
2023-02-03T09:32:07.941Z,13.05
2023-02-03T09:34:35.117Z,9.73
2023-02-03T09:37:02.273Z,10.88
2023-02-03T09:39:29.266Z,20.52
2023-02-03T09:42:25.445Z,12.02
2023-02-03T09:45:13.464Z,16.02
2023-02-03T09:47:43.131Z,15.27
2023-02-03T09:50:21.017Z,15.73
2023-02-03T09:52:48.430Z,13.88
2023-02-03T09:55:35.494Z,17.02
2023-02-03T09:58:18.482Z,18.15
2023-02-03T10:00:51.874Z,17.67
2023-02-03T10:03:38.769Z,14.68
2023-02-03T10:06:11.846Z,13.00
2023-02-03T10:09:03.868Z,36.42
2023-02-03T10:14:48.584Z,29.58
2023-02-03T10:17:34.790Z,24.83
2023-02-03T10:20:23.514Z,28.23
2023-02-03T10:23:14.385Z,12.05
2023-02-03T10:25:44.884Z,18.88
2023-02-03T10:28:28.270Z,65.38
2023-02-03T10:31:04.808Z,34.90
2023-02-03T10:33:32.691Z,22.40
2023-02-03T10:36:11.813Z,25.60
2023-02-03T10:38:51.491Z,32.33
2023-02-03T10:41:19.957Z,25.85
2023-02-03T10:43:47.677Z,23.20
2023-02-03T10:46:15.854Z,17.25
2023-02-03T10:48:42.997Z,21.80
2023-02-03T10:51:25.859Z,25.02
2023-02-03T10:53:53.803Z,21.13
2023-02-03T10:56:26.806Z,28.35
2023-02-03T10:58:56.746Z,25.77
2023-02-03T11:01:26.055Z,22.17
2023-02-03T11:04:06.828Z,23.10
2023-02-03T11:06:36.423Z,22.95
2023-02-03T11:09:22.786Z,20.63
2023-02-03T11:12:03.544Z,18.50
2023-02-03T11:14:37.623Z,12.20
2023-02-03T11:17:09.473Z,17.38
2023-02-03T11:22:04.290Z,18.33
2023-02-03T11:24:38.506Z,12.18
2023-02-03T11:27:17.106Z,13.75
2023-02-03T11:29:46.772Z,15.00
2023-02-03T11:32:28.065Z,16.25
2023-02-03T11:35:40.726Z,17.15
2023-02-03T11:38:31.968Z,19.17
2023-02-03T11:41:01.343Z,18.57
2023-02-03T11:43:31.670Z,19.92
2023-02-03T11:46:04.720Z,19.05
2023-02-03T11:49:11.432Z,27.77
2023-02-03T11:51:53.204Z,33.15
2023-02-03T11:54:45.193Z,16.38
2023-02-03T12:00:13.342Z,19.58
2023-02-03T12:03:01.989Z,11.05
2023-02-03T12:05:54.990Z,14.50
2023-02-03T12:09:08.283Z,16.00
2023-02-03T12:11:41.565Z,11.80
2023-02-03T12:14:46.212Z,17.95
2023-02-03T12:17:35.587Z,21.80
2023-02-03T12:20:32.290Z,18.05
2023-02-03T12:23:09.058Z,29.13
2023-02-03T12:25:51.633Z,27.05
2023-02-03T12:28:33.382Z,13.52
2023-02-03T12:31:18.457Z,14.60
2023-02-03T12:34:00.323Z,16.27
2023-02-03T12:36:31.206Z,15.15
2023-02-03T12:39:06.305Z,45.03
2023-02-03T12:41:36.608Z,25.38
2023-02-03T12:44:37.924Z,16.55
2023-02-03T12:47:12.844Z,15.13
2023-02-03T12:49:48.044Z,16.58
2023-02-03T12:52:43.717Z,15.38
2023-02-03T12:55:34.984Z,15.07
2023-02-03T12:58:12.466Z,13.00
2023-02-03T13:00:44.647Z,16.15
2023-02-03T13:03:33.365Z,18.23
2023-02-03T13:06:23.260Z,9.85
2023-02-03T13:09:17.806Z,14.27
2023-02-03T13:11:52.185Z,14.60
2023-02-03T13:14:56.503Z,11.90
2023-02-03T13:17:29.407Z,15.48
2023-02-03T13:20:03.226Z,31.20
2023-02-03T13:22:30.285Z,16.85
2023-02-03T13:25:05.308Z,16.60
2023-02-03T13:28:07.850Z,16.92
2023-02-03T13:30:37.612Z,26.85
2023-02-03T13:33:25.625Z,25.30
2023-02-03T13:35:58.433Z,14.30
2023-02-03T13:38:56.544Z,12.30
2023-02-03T13:41:29.070Z,10.18
2023-02-03T13:43:57.853Z,9.80
2023-02-03T13:46:31.304Z,11.63
2023-02-03T13:49:01.084Z,11.63
2023-02-03T13:51:35.049Z,10.85
2023-02-03T13:54:08.404Z,11.13
2023-02-03T13:56:35.889Z,10.63
2023-02-03T13:59:15.026Z,8.98
2023-02-03T14:01:43.286Z,10.50
2023-02-03T14:04:29.498Z,10.65
2023-02-03T14:06:59.441Z,10.85
2023-02-03T14:09:34.481Z,11.88
2023-02-03T14:12:19.662Z,10.35
2023-02-03T14:14:52.903Z,11.05
2023-02-03T14:17:42.915Z,12.07
2023-02-03T14:20:28.747Z,10.80
2023-02-03T14:23:15.974Z,19.48
2023-02-03T14:25:52.830Z,22.95
2023-02-03T14:28:22.952Z,14.93
2023-02-03T14:31:12.703Z,10.63
2023-02-03T14:33:49.063Z,13.30
2023-02-03T14:36:28.255Z,13.10
2023-02-03T14:38:56.513Z,15.07
2023-02-03T14:41:48.586Z,14.23
2023-02-03T14:44:34.305Z,18.92
2023-02-03T14:47:08.541Z,21.83
2023-02-03T14:49:58.605Z,20.55
2023-02-03T14:52:42.713Z,22.70
2023-02-03T14:55:21.187Z,29.20
2023-02-03T14:57:52.863Z,23.05
2023-02-03T15:00:21.822Z,22.67
2023-02-03T15:03:10.375Z,18.27
2023-02-03T15:05:45.901Z,27.63
2023-02-03T15:08:40.205Z,22.92
2023-02-03T15:11:33.328Z,28.23
2023-02-03T15:14:26.755Z,28.60
2023-02-03T15:16:56.054Z,28.85
2023-02-03T15:19:26.808Z,23.95
2023-02-03T15:21:54.848Z,30.38
2023-02-03T15:24:24.173Z,25.20
2023-02-03T15:26:56.181Z,26.75
2023-02-03T15:29:30.731Z,23.85
2023-02-03T15:32:22.905Z,24.88
2023-02-03T15:37:54.630Z,21.90
2023-02-03T15:40:26.222Z,28.80
2023-02-03T15:43:03.802Z,32.60
2023-02-03T15:45:37.614Z,25.13
2023-02-03T15:48:39.555Z,26.75
2023-02-03T15:51:13.911Z,29.77
2023-02-03T15:53:57.085Z,31.13
2023-02-03T15:56:38.351Z,34.95
2023-02-03T15:59:07.405Z,32.10
2023-02-03T16:01:34.616Z,32.28
2023-02-03T16:04:01.726Z,32.53
2023-02-03T16:06:36.049Z,32.00
2023-02-03T16:09:04.627Z,30.45
2023-02-03T16:11:37.701Z,30.60
2023-02-03T16:14:07.429Z,25.85
2023-02-03T16:16:38.672Z,36.80
2023-02-03T16:19:22.214Z,28.48
2023-02-03T16:21:51.952Z,24.27
2023-02-03T16:24:38.487Z,25.17
2023-02-03T16:27:28.025Z,22.27
2023-02-03T16:30:35.051Z,26.67
2023-02-03T16:33:38.905Z,21.10
2023-02-03T16:36:32.224Z,23.35
2023-02-03T16:39:21.132Z,20.88
2023-02-03T16:42:06.624Z,21.83
2023-02-03T16:44:52.560Z,24.40
2023-02-03T16:47:44.696Z,16.33
2023-02-03T16:50:38.543Z,21.77
2023-02-03T16:53:09.626Z,20.58
2023-02-03T16:55:36.865Z,14.25
2023-02-03T16:58:04.049Z,19.88
2023-02-03T17:00:31.233Z,20.27
2023-02-03T17:02:58.780Z,18.52
2023-02-03T17:05:26.057Z,17.65
2023-02-03T17:07:52.969Z,18.38
2023-02-03T17:10:20.148Z,19.00
2023-02-03T17:12:47.345Z,18.40
2023-02-03T17:15:14.465Z,15.07
2023-02-03T17:17:41.389Z,19.65
2023-02-03T17:20:09.051Z,15.20
2023-02-03T17:22:36.080Z,15.82
2023-02-03T17:25:03.467Z,17.15
2023-02-03T17:27:30.584Z,14.73
2023-02-03T17:29:57.805Z,24.95
2023-02-03T17:32:24.874Z,25.35
2023-02-03T17:34:52.040Z,22.25
2023-02-03T17:37:19.084Z,18.80
2023-02-03T17:53:33.108Z,15.13
2023-02-03T17:56:08.301Z,14.70
2023-02-03T17:58:35.374Z,15.95
2023-02-03T18:01:09.173Z,13.77
2023-02-03T18:03:36.311Z,13.02
2023-02-03T18:06:04.589Z,16.05
2023-02-03T18:08:31.721Z,10.82
2023-02-03T18:10:59.893Z,15.20
2023-02-03T18:13:27.966Z,14.27
2023-02-03T18:15:57.880Z,12.82
2023-02-03T18:18:26.258Z,15.25
2023-02-03T18:20:53.418Z,12.40
2023-02-03T18:23:21.435Z,10.10
2023-02-03T18:25:54.960Z,10.65
2023-02-03T18:28:23.506Z,8.80
2023-02-03T18:30:50.794Z,12.85
2023-02-03T18:33:18.334Z,11.07
2023-02-03T18:35:45.307Z,9.40
2023-02-03T18:38:12.981Z,8.50
2023-02-03T18:40:40.306Z,9.23
2023-02-03T18:43:07.989Z,10.18
2023-02-03T18:45:38.647Z,12.73
2023-02-03T18:48:06.329Z,10.98
2023-02-03T18:50:34.797Z,18.88
2023-02-03T18:53:03.402Z,16.95
2023-02-03T18:55:31.946Z,12.02
2023-02-03T18:57:59.367Z,9.50
2023-02-03T19:00:27.544Z,10.90
2023-02-03T19:02:55.287Z,6.20
2023-02-03T19:05:22.704Z,8.60
2023-02-03T19:07:51.113Z,8.40
2023-02-03T19:10:18.775Z,10.55
2023-02-03T19:12:46.431Z,8.40
2023-02-03T19:15:13.519Z,11.07
2023-02-03T19:17:40.972Z,8.55
2023-02-03T19:20:10.461Z,12.43
2023-02-03T19:22:39.097Z,8.07
2023-02-03T19:25:06.797Z,11.35
2023-02-03T19:27:33.744Z,9.75
2023-02-03T19:30:00.780Z,6.10
2023-02-03T19:32:27.780Z,7.25
2023-02-03T19:34:54.939Z,5.72
2023-02-03T19:37:22.055Z,6.32
2023-02-03T19:39:51.536Z,5.05
2023-02-03T19:42:18.625Z,4.32
2023-02-03T19:44:45.715Z,7.00
2023-02-03T19:47:13.339Z,9.55
2023-02-03T19:49:40.599Z,5.90
2023-02-03T19:52:09.157Z,8.32
2023-02-03T19:54:36.645Z,5.78
2023-02-03T19:57:03.650Z,4.95
2023-02-03T19:59:30.800Z,4.75
2023-02-03T20:02:01.648Z,5.35
2023-02-03T20:04:36.229Z,7.55
2023-02-03T20:07:07.780Z,5.53
2023-02-03T20:09:35.924Z,7.57
2023-02-03T20:12:04.001Z,4.88
2023-02-03T20:14:34.445Z,6.43
2023-02-03T20:17:04.736Z,6.32
2023-02-03T20:19:31.999Z,5.15
2023-02-03T20:22:00.778Z,5.45
2023-02-03T20:24:27.951Z,4.80
2023-02-03T20:26:54.966Z,7.05
2023-02-03T20:29:22.080Z,4.75
2023-02-03T20:31:49.207Z,4.30
2023-02-03T20:34:16.169Z,5.70
2023-02-03T20:36:43.255Z,6.22
2023-02-03T20:39:19.627Z,4.15
2023-02-03T20:41:46.636Z,4.93
2023-02-03T20:44:14.422Z,5.45
2023-02-03T20:46:41.454Z,4.50
2023-02-03T20:49:13.656Z,5.15
2023-02-03T20:51:41.288Z,8.00
2023-02-03T20:54:21.977Z,6.13
2023-02-03T20:56:49.932Z,5.13
2023-02-03T20:59:19.663Z,4.38
2023-02-03T21:01:47.820Z,6.65
2023-02-03T21:04:38.121Z,4.10
2023-02-03T21:07:14.551Z,4.50
2023-02-03T21:09:43.286Z,4.57
2023-02-03T21:12:13.953Z,3.90
2023-02-03T21:14:44.190Z,4.43
2023-02-03T21:17:27.094Z,5.18
2023-02-03T21:19:55.659Z,5.78
2023-02-03T21:22:26.014Z,4.57
2023-02-03T21:24:57.625Z,4.70
2023-02-03T21:27:31.079Z,5.93
2023-02-03T21:30:00.243Z,9.43
2023-02-03T21:32:38.608Z,4.50
2023-02-03T21:35:22.372Z,4.78
2023-02-03T21:37:53.808Z,4.38
2023-02-03T21:40:26.084Z,3.10
2023-02-03T21:42:54.270Z,4.53
2023-02-03T21:45:28.661Z,7.18
2023-02-03T21:47:57.290Z,7.22
2023-02-03T21:50:40.911Z,3.45
2023-02-03T21:53:07.973Z,5.88
2023-02-03T21:55:35.988Z,4.13
2023-02-03T21:58:22.713Z,4.40
2023-02-03T22:00:50.631Z,4.40
2023-02-03T22:03:40.861Z,3.15
2023-02-03T22:06:16.828Z,3.22
2023-02-03T22:08:48.566Z,3.35
2023-02-03T22:13:43.119Z,3.35
2023-02-03T22:16:10.569Z,3.42
2023-02-03T22:18:37.653Z,5.25
2023-02-03T22:21:04.628Z,3.65
2023-02-03T22:23:32.027Z,2.50
2023-02-03T22:25:59.224Z,2.20
2023-02-03T22:28:26.148Z,3.28
2023-02-03T22:30:53.576Z,2.30
2023-02-03T22:33:20.806Z,2.30
2023-02-03T22:35:47.953Z,1.90
2023-02-03T22:38:14.959Z,3.42
2023-02-03T22:40:42.312Z,2.63
2023-02-03T22:43:09.453Z,3.45
2023-02-03T22:45:36.625Z,3.28
2023-02-03T22:48:04.584Z,2.28
2023-02-03T22:50:35.717Z,2.47
2023-02-03T22:53:04.532Z,2.17
2023-02-03T22:55:32.144Z,3.75
2023-02-03T22:57:59.473Z,2.65
2023-02-03T23:00:27.004Z,0.95
2023-02-03T23:02:54.276Z,1.55
2023-02-03T23:05:21.634Z,1.80
2023-02-03T23:07:49.445Z,2.78
2023-02-03T23:10:23.561Z,2.55
2023-02-03T23:12:50.876Z,1.20
2023-02-03T23:15:18.299Z,1.52
2023-02-03T23:17:45.805Z,1.60
2023-02-03T23:20:14.808Z,3.22
2023-02-03T23:22:42.484Z,4.00
2023-02-03T23:25:10.797Z,2.55
2023-02-03T23:27:38.427Z,1.40
2023-02-03T23:30:06.763Z,1.67
2023-02-03T23:32:34.091Z,1.10
2023-02-03T23:35:20.471Z,2.10
2023-02-03T23:37:47.666Z,1.27
2023-02-03T23:40:15.850Z,1.30
2023-02-03T23:42:42.839Z,3.05
2023-02-03T23:45:11.916Z,0.88
2023-02-03T23:47:43.413Z,2.03
2023-02-03T23:50:13.904Z,2.20
2023-02-03T23:52:41.076Z,1.63
2023-02-03T23:55:14.183Z,2.00
2023-02-03T23:57:44.030Z,1.85
